createdAt,value
2019-01-22T00:00:56.284Z,95.39
2019-01-22T00:06:01.597Z,96.04
2019-01-22T00:11:06.816Z,96.67
2019-01-22T00:16:12.272Z,96.69
2019-01-22T00:21:17.400Z,95.98
2019-01-22T00:26:22.572Z,90.56
2019-01-22T00:31:27.598Z,91.42
2019-01-22T00:36:32.965Z,92.81
2019-01-22T00:41:38.055Z,93.18
2019-01-22T00:46:43.462Z,93.28
2019-01-22T00:51:48.744Z,93.00
2019-01-22T00:56:53.815Z,92.95
2019-01-22T01:01:58.870Z,93.03
2019-01-22T01:07:04.171Z,93.21
2019-01-22T01:12:09.241Z,92.98
2019-01-22T01:17:14.986Z,93.46
2019-01-22T01:22:20.422Z,93.06
2019-01-22T01:27:27.200Z,93.15
2019-01-22T01:32:47.688Z,93.23
2019-01-22T01:37:52.830Z,93.58
2019-01-22T01:42:58.234Z,93.33
2019-01-22T01:48:05.698Z,92.84
2019-01-22T01:53:10.863Z,93.11
2019-01-22T01:58:16.419Z,93.37
2019-01-22T02:03:21.575Z,93.56
2019-01-22T02:08:26.777Z,94.02
2019-01-22T02:13:39.157Z,94.39
2019-01-22T02:19:10.357Z,95.10
2019-01-22T02:24:43.874Z,95.40
2019-01-22T02:30:04.641Z,95.05
2019-01-22T02:35:37.352Z,95.13
2019-01-22T02:41:20.234Z,95.14
2019-01-22T02:46:38.985Z,95.08
2019-01-22T02:52:08.277Z,94.93
2019-01-22T02:57:56.674Z,94.26
2019-01-22T03:03:30.529Z,94.61
2019-01-22T03:09:06.475Z,94.46
2019-01-22T03:14:53.652Z,94.31
2019-01-22T03:20:48.988Z,93.08
2019-01-22T03:26:34.681Z,92.68
2019-01-22T03:32:19.784Z,91.99
2019-01-22T03:38:17.787Z,92.12
2019-01-22T03:43:39.942Z,92.48
2019-01-22T03:48:56.137Z,92.41
2019-01-22T03:54:26.097Z,92.55
2019-01-22T03:59:31.706Z,93.06
2019-01-22T04:04:37.085Z,93.33
2019-01-22T04:09:53.195Z,92.97
2019-01-22T04:14:58.461Z,93.21
2019-01-22T04:20:03.948Z,92.69
2019-01-22T04:25:33.365Z,92.54
2019-01-22T04:31:05.311Z,92.85
2019-01-22T04:36:59.722Z,92.91
2019-01-22T04:42:35.168Z,91.61
2019-01-22T04:48:05.985Z,91.67
2019-01-22T04:53:55.479Z,91.88
2019-01-22T04:59:23.124Z,91.61
2019-01-22T05:04:54.540Z,91.16
2019-01-22T05:10:14.415Z,90.78
2019-01-22T05:16:07.469Z,90.93
2019-01-22T05:21:25.179Z,91.31
2019-01-22T05:27:14.779Z,90.10
2019-01-22T05:32:55.616Z,90.82
2019-01-22T05:38:35.604Z,90.48
2019-01-22T05:44:19.699Z,91.26
2019-01-22T05:49:52.993Z,90.35
2019-01-22T05:55:07.666Z,90.37
2019-01-22T06:00:41.743Z,90.57
2019-01-22T06:06:17.478Z,90.46
2019-01-22T06:12:06.287Z,90.38
2019-01-22T06:18:03.452Z,89.97
2019-01-22T06:24:07.836Z,90.25
2019-01-22T06:29:45.900Z,90.68
2019-01-22T06:35:10.204Z,90.89
2019-01-22T06:40:56.519Z,90.66
2019-01-22T06:46:26.853Z,90.56
2019-01-22T06:52:06.393Z,90.81
2019-01-22T06:57:31.057Z,90.44
2019-01-22T07:03:22.202Z,90.83
2019-01-22T07:09:22.625Z,90.16
2019-01-22T07:15:20.961Z,89.08
2019-01-22T07:21:28.846Z,89.71
2019-01-22T07:27:16.508Z,89.43
2019-01-22T07:32:39.893Z,88.71
2019-01-22T07:38:06.106Z,89.29
2019-01-22T07:44:10.654Z,88.96
2019-01-22T07:49:39.705Z,88.79
2019-01-22T07:55:15.097Z,87.37
2019-01-22T08:00:38.569Z,87.48
2019-01-22T08:06:20.203Z,87.32
2019-01-22T08:11:55.037Z,87.42
2019-01-22T08:17:21.632Z,87.16
2019-01-22T08:23:03.315Z,87.00
2019-01-22T08:29:08.830Z,88.57
2019-01-22T08:34:54.721Z,87.33
2019-01-22T08:40:58.406Z,87.47
2019-01-22T08:46:18.085Z,86.48
2019-01-22T08:52:01.987Z,86.62
2019-01-22T08:57:51.263Z,86.47
2019-01-22T09:03:19.613Z,85.66
2019-01-22T09:08:58.891Z,85.13
2019-01-22T09:14:44.900Z,84.57
2019-01-22T09:20:25.653Z,85.11
2019-01-22T09:25:51.331Z,85.04
2019-01-22T09:31:16.883Z,85.36
2019-01-22T09:37:02.094Z,85.48
2019-01-22T09:42:07.149Z,85.44
2019-01-22T09:47:12.411Z,84.95
2019-01-22T09:52:17.583Z,85.09
2019-01-22T09:57:23.092Z,85.43
2019-01-22T10:02:33.975Z,85.64
2019-01-22T10:07:39.426Z,86.01
2019-01-22T10:12:45.155Z,86.17
2019-01-22T10:17:50.886Z,86.03
2019-01-22T10:22:56.321Z,86.00
2019-01-22T10:28:01.559Z,85.67
2019-01-22T10:33:06.911Z,85.21
2019-01-22T10:38:50.443Z,85.10
2019-01-22T10:44:25.510Z,84.65
2019-01-22T10:49:52.825Z,84.98
2019-01-22T10:55:04.863Z,85.26
2019-01-22T11:00:35.557Z,84.84
2019-01-22T11:05:42.507Z,85.28
2019-01-22T11:11:08.701Z,84.11
2019-01-22T11:16:15.120Z,82.84
2019-01-22T11:21:20.708Z,81.61
2019-01-22T11:26:26.407Z,79.16
2019-01-22T11:31:39.090Z,71.91
2019-01-22T11:36:54.526Z,61.37
2019-01-22T11:42:26.042Z,53.50
2019-01-22T11:47:33.926Z,48.36
2019-01-22T11:52:39.857Z,44.13
2019-01-22T11:57:45.990Z,42.81
2019-01-22T12:02:52.501Z,45.78
2019-01-22T12:07:58.099Z,47.23
2019-01-22T12:13:03.783Z,44.52
2019-01-22T12:18:09.580Z,46.15
2019-01-22T12:23:15.202Z,48.20
2019-01-22T12:28:20.128Z,48.45
2019-01-22T12:33:25.995Z,52.72
2019-01-22T12:38:31.576Z,57.74
2019-01-22T12:43:37.239Z,60.91
2019-01-22T12:48:42.969Z,58.95
2019-01-22T12:53:54.653Z,55.99
2019-01-22T12:59:10.111Z,57.35
2019-01-22T13:04:15.708Z,57.47
2019-01-22T13:10:00.607Z,61.76
2019-01-22T13:40:54.117Z,65.58
2019-01-22T13:46:02.604Z,67.34
2019-01-22T13:51:11.783Z,68.09
2019-01-22T13:56:18.585Z,68.84
2019-01-22T14:01:24.384Z,69.35
2019-01-22T14:06:31.060Z,69.91
2019-01-22T14:11:36.544Z,69.91
2019-01-22T14:16:56.948Z,69.47
2019-01-22T14:22:03.733Z,70.48
2019-01-22T14:27:09.399Z,69.76
2019-01-22T14:32:14.856Z,70.27
2019-01-22T14:37:20.675Z,70.49
2019-01-22T14:42:27.874Z,71.63
2019-01-22T14:47:33.487Z,72.25
2019-01-22T14:52:41.508Z,72.42
2019-01-22T14:57:47.198Z,71.71
2019-01-22T15:02:53.395Z,72.08
2019-01-22T15:07:59.000Z,71.75
2019-01-22T15:13:05.786Z,71.32
2019-01-22T15:18:14.014Z,71.51
2019-01-22T15:23:29.576Z,72.65
2019-01-22T15:28:38.806Z,73.00
2019-01-22T15:33:45.917Z,72.33
2019-01-22T15:38:59.692Z,72.71
2019-01-22T15:44:13.338Z,73.52
2019-01-22T15:49:27.480Z,73.43
2019-01-22T15:54:32.928Z,74.12
2019-01-22T15:59:38.890Z,74.60
2019-01-22T16:04:44.568Z,74.70
2019-01-22T16:09:50.600Z,74.20
2019-01-22T16:14:58.645Z,74.09
2019-01-22T16:20:06.616Z,74.38
2019-01-22T16:25:16.181Z,74.05
2019-01-22T16:30:26.823Z,73.96
2019-01-22T16:35:32.414Z,73.35
2019-01-22T16:40:40.850Z,73.35
2019-01-22T16:45:47.394Z,73.33
2019-01-22T16:50:52.932Z,73.69
2019-01-22T16:55:58.425Z,73.72
2019-01-22T17:01:04.127Z,73.51
2019-01-22T17:06:10.573Z,74.18
2019-01-22T17:11:17.230Z,74.62
2019-01-22T17:16:24.044Z,74.38
2019-01-22T17:21:29.586Z,73.94
2019-01-22T17:26:35.196Z,73.85
2019-01-22T17:32:04.634Z,73.75
2019-01-22T17:37:10.283Z,74.03
2019-01-22T17:42:17.081Z,74.03
2019-01-22T17:47:23.819Z,74.00
2019-01-22T17:52:30.228Z,74.31
2019-01-22T17:57:39.471Z,74.76
2019-01-22T18:02:46.501Z,74.91
2019-01-22T18:07:52.537Z,74.94
2019-01-22T18:12:58.924Z,75.08
2019-01-22T18:18:04.600Z,75.76
2019-01-22T18:23:10.288Z,75.56
2019-01-22T18:28:15.569Z,75.67
2019-01-22T18:33:22.688Z,75.41
2019-01-22T18:38:28.192Z,75.13
2019-01-22T18:43:34.093Z,75.53
2019-01-22T18:48:40.226Z,75.84
2019-01-22T18:54:06.680Z,76.20
2019-01-22T18:59:14.949Z,76.29
2019-01-22T19:04:23.276Z,76.52
2019-01-22T19:09:30.717Z,77.22
2019-01-22T19:14:39.964Z,76.95
2019-01-22T19:19:47.936Z,77.08
2019-01-22T19:24:53.733Z,77.15
2019-01-22T19:30:06.846Z,77.36
2019-01-22T19:35:27.714Z,77.57
2019-01-22T19:40:40.355Z,77.93
2019-01-22T19:45:50.828Z,78.03
2019-01-22T19:50:57.666Z,78.12
2019-01-22T19:56:08.001Z,78.21
2019-01-22T20:01:25.601Z,78.24
2019-01-22T20:06:34.832Z,78.43
2019-01-22T20:11:40.206Z,78.61
2019-01-22T20:16:45.572Z,78.58
2019-01-22T20:21:50.816Z,78.70
2019-01-22T20:27:05.384Z,78.95
2019-01-22T20:32:10.598Z,79.18
2019-01-22T20:37:15.939Z,79.35
2019-01-22T20:42:21.219Z,79.36
2019-01-22T20:47:26.400Z,79.23
2019-01-22T20:52:32.334Z,79.26
2019-01-22T20:57:37.905Z,79.03
2019-01-22T21:02:43.109Z,79.43
2019-01-22T21:07:48.224Z,79.59
2019-01-22T21:12:54.068Z,79.73
2019-01-22T21:17:59.251Z,79.75
2019-01-22T21:23:04.717Z,79.98
2019-01-22T21:28:09.808Z,79.74
2019-01-22T21:33:16.246Z,79.79
2019-01-22T21:38:21.450Z,79.71
2019-01-22T21:43:26.769Z,79.47
2019-01-22T21:48:33.799Z,79.34
2019-01-22T21:53:44.289Z,79.42
2019-01-22T21:58:50.318Z,79.00
2019-01-22T22:03:55.742Z,78.96
2019-01-22T22:09:02.248Z,79.73
2019-01-22T22:14:10.956Z,79.76
2019-01-22T22:19:16.594Z,79.76
2019-01-22T22:24:26.988Z,79.98
2019-01-22T22:29:34.571Z,80.18
2019-01-22T22:34:40.826Z,80.46
2019-01-22T22:39:46.054Z,80.18
2019-01-22T22:44:51.130Z,80.14
2019-01-22T22:49:56.526Z,79.69
2019-01-22T22:55:02.120Z,79.52
2019-01-22T23:00:33.596Z,79.26
2019-01-22T23:05:42.498Z,79.48
2019-01-22T23:10:47.566Z,79.07
2019-01-22T23:15:52.650Z,79.25
2019-01-22T23:20:58.845Z,79.53
2019-01-22T23:26:04.054Z,79.50
2019-01-22T23:31:09.112Z,79.29
2019-01-22T23:36:14.706Z,79.67
2019-01-22T23:41:19.915Z,79.96
2019-01-22T23:46:25.215Z,79.74
2019-01-22T23:51:30.362Z,79.85
2019-01-22T23:56:35.692Z,80.00
